Time;durP1;ratioP1;P1;durP2;ratioP2;P2;SDS_P1;SDS_P2;PMS_P1;PMS_P2;Temp;Humidity;BMP_temperature;BMP_pressure;BME280_temperature;BME280_humidity;BME280_pressure;Samples;Min_cycle;Max_cycle;Signal;HPM_P1;HPM_P2
2023/08/24 00:00:32;;;;;;;12.07;7.10;;;21.20;99.90;;;;;;5031442;28;20502;-70
2023/08/24 00:02:58;;;;;;;14.60;7.20;;;21.30;99.90;;;;;;5031208;28;20882;-70
2023/08/24 00:05:23;;;;;;;10.63;5.85;;;21.30;99.90;;;;;;5029051;28;20398;-70
2023/08/24 00:07:49;;;;;;;13.93;7.30;;;21.30;1.00;;;;;;5024555;28;20397;-70
2023/08/24 00:10:15;;;;;;;12.68;6.75;;;21.30;1.00;;;;;;5016683;28;20904;-70
2023/08/24 00:12:41;;;;;;;12.97;7.07;;;21.20;1.00;;;;;;5031809;28;20391;-70
2023/08/24 00:15:10;;;;;;;13.63;7.30;;;21.10;99.90;;;;;;5031459;28;20415;-70
2023/08/24 00:17:37;;;;;;;11.75;6.63;;;21.00;1.00;;;;;;5031735;28;20481;-70
2023/08/24 00:20:04;;;;;;;12.25;6.47;;;21.00;90.60;;;;;;5040993;28;20409;-70
2023/08/24 00:22:30;;;;;;;13.33;6.93;;;20.90;99.90;;;;;;5040888;28;20462;-70
2023/08/24 00:24:55;;;;;;;13.45;6.90;;;20.80;1.00;;;;;;5040820;28;20399;-70
2023/08/24 00:27:21;;;;;;;14.63;7.97;;;20.70;99.90;;;;;;5037319;28;20411;-70
2023/08/24 00:29:46;;;;;;;17.97;8.13;;;20.60;99.90;;;;;;5030280;28;20878;-70
2023/08/24 00:32:12;;;;;;;14.27;7.70;;;20.60;99.90;;;;;;5029569;28;20426;-70
2023/08/24 00:34:37;;;;;;;12.07;7.07;;;20.60;99.90;;;;;;5039105;28;20501;-70
2023/08/24 00:37:05;;;;;;;13.18;6.95;;;20.70;99.90;;;;;;5040504;28;20478;-70
2023/08/24 00:39:31;;;;;;;14.63;7.72;;;20.80;97.90;;;;;;5031725;28;20938;-69
2023/08/24 00:41:56;;;;;;;13.75;7.75;;;20.80;1.00;;;;;;5032496;28;20461;-69
2023/08/24 00:44:22;;;;;;;14.85;7.70;;;20.80;99.90;;;;;;5031789;28;20449;-70
2023/08/24 00:46:48;;;;;;;12.93;7.30;;;20.70;99.90;;;;;;5030573;28;20778;-71
2023/08/24 00:49:14;;;;;;;17.42;8.52;;;20.60;1.00;;;;;;5030456;28;20411;-71
2023/08/24 00:51:40;;;;;;;12.68;7.78;;;20.50;1.00;;;;;;5030557;28;20399;-71
2023/08/24 00:54:05;;;;;;;12.13;7.32;;;20.60;1.00;;;;;;5030327;28;20472;-71
2023/08/24 00:56:32;;;;;;;13.50;8.20;;;20.60;1.00;;;;;;5030061;28;20394;-70
2023/08/24 00:58:57;;;;;;;15.00;8.65;;;20.70;1.00;;;;;;5029569;28;20438;-71
2023/08/24 01:01:24;;;;;;;14.40;8.37;;;20.70;99.90;;;;;;5030430;28;20920;-71
2023/08/24 01:03:50;;;;;;;14.45;8.48;;;20.80;99.90;;;;;;5031001;28;20402;-71
2023/08/24 01:06:15;;;;;;;14.40;7.47;;;20.80;99.90;;;;;;5030519;28;20392;-70
2023/08/24 01:08:41;;;;;;;14.63;8.00;;;20.80;99.90;;;;;;5030138;28;20873;-71
2023/08/24 01:11:40;;;;;;;14.90;8.60;;;20.90;99.90;;;;;;5029779;28;20886;-70
2023/08/24 01:14:33;;;;;;;14.77;7.85;;;21.00;99.90;;;;;;5029846;28;20423;-70
2023/08/24 01:17:02;;;;;;;13.75;7.45;;;21.10;1.00;;;;;;5030048;28;20387;-71
2023/08/24 01:19:38;;;;;;;12.90;8.10;;;21.20;1.00;;;;;;5029651;28;20402;-71
2023/08/24 01:22:08;;;;;;;14.00;8.90;;;21.10;1.00;;;;;;5029784;28;20399;-71
2023/08/24 01:24:40;;;;;;;12.13;7.50;;;21.00;1.00;;;;;;5029719;28;20410;-71
2023/08/24 01:27:06;;;;;;;14.40;7.35;;;21.00;46.20;;;;;;5029506;28;20395;-69
2023/08/24 01:29:32;;;;;;;15.98;7.63;;;20.90;56.00;;;;;;5029893;28;20857;-69
2023/08/24 01:31:58;;;;;;;14.93;7.90;;;20.80;99.90;;;;;;5029245;28;20869;-71
2023/08/24 01:34:23;;;;;;;13.60;7.47;;;20.70;99.90;;;;;;5028376;28;20489;-71
2023/08/24 01:36:49;;;;;;;14.70;7.73;;;20.80;1.00;;;;;;5029974;28;20409;-71
2023/08/24 01:39:30;;;;;;;13.77;7.80;;;20.70;1.00;;;;;;5029445;28;20391;-71
2023/08/24 01:42:00;;;;;;;14.63;8.75;;;20.60;1.00;;;;;;5029416;28;20398;-70
2023/08/24 01:44:28;;;;;;;14.68;8.40;;;20.60;1.00;;;;;;5044476;28;20388;-71
2023/08/24 01:46:54;;;;;;;15.48;8.13;;;20.60;1.00;;;;;;5029328;28;20581;-71
2023/08/24 01:49:23;;;;;;;12.85;6.93;;;20.60;1.00;;;;;;5029453;28;20391;-71
2023/08/24 01:51:50;;;;;;;13.75;7.30;;;20.70;1.00;;;;;;5029898;28;20399;-70
2023/08/24 01:54:15;;;;;;;13.30;7.80;;;20.70;1.00;;;;;;5029034;28;20423;-71
2023/08/24 01:56:41;;;;;;;17.10;7.90;;;20.70;1.00;;;;;;5029095;28;20462;-71
2023/08/24 01:59:08;;;;;;;13.43;7.77;;;20.70;1.00;;;;;;5028745;28;20466;-71
2023/08/24 02:01:33;;;;;;;13.45;7.18;;;20.70;1.00;;;;;;5028833;28;20422;-71
2023/08/24 02:03:59;;;;;;;13.97;7.33;;;20.80;1.00;;;;;;5029018;28;20415;-68
2023/08/24 02:06:26;;;;;;;13.52;7.93;;;20.70;1.00;;;;;;5028797;28;20394;-68
2023/08/24 02:08:51;;;;;;;15.25;7.85;;;20.70;1.00;;;;;;5029599;28;20865;-70
2023/08/24 02:11:17;;;;;;;14.10;8.13;;;20.60;1.00;;;;;;5018924;28;20450;-71
2023/08/24 02:13:42;;;;;;;11.43;6.97;;;20.50;99.90;;;;;;5009125;28;20407;-71
2023/08/24 02:16:08;;;;;;;15.97;8.70;;;20.30;99.90;;;;;;5008825;28;20420;-71
2023/08/24 02:18:34;;;;;;;16.45;7.80;;;20.30;99.90;;;;;;5008108;28;20906;-71
2023/08/24 02:20:59;;;;;;;16.75;8.15;;;20.20;99.90;;;;;;5008373;28;20409;-71
2023/08/24 02:23:25;;;;;;;14.07;7.70;;;20.10;99.90;;;;;;5024285;28;20401;-68
2023/08/24 02:25:50;;;;;;;16.77;7.53;;;20.10;99.90;;;;;;5029296;28;20477;-68
2023/08/24 02:28:16;;;;;;;12.80;7.90;;;20.10;99.90;;;;;;5028613;28;20485;-68
2023/08/24 02:30:42;;;;;;;15.03;8.13;;;20.10;99.90;;;;;;5029052;28;20513;-68
2023/08/24 02:33:07;;;;;;;12.63;7.27;;;20.00;1.00;;;;;;5028275;28;20422;-68
2023/08/24 02:35:33;;;;;;;15.00;7.72;;;20.10;99.90;;;;;;5028565;28;20754;-68
2023/08/24 02:37:59;;;;;;;15.43;8.13;;;20.20;99.90;;;;;;5028827;28;20391;-68
2023/08/24 02:40:24;;;;;;;14.05;7.57;;;20.10;99.90;;;;;;5028664;28;20471;-68
2023/08/24 02:42:50;;;;;;;13.90;8.17;;;20.20;99.90;;;;;;5029263;28;20476;-69
2023/08/24 02:45:15;;;;;;;13.40;7.43;;;20.20;99.90;;;;;;5029989;28;20387;-69
2023/08/24 02:47:41;;;;;;;13.20;7.93;;;20.10;1.00;;;;;;5032249;28;20417;-69
2023/08/24 02:50:07;;;;;;;11.73;7.43;;;20.20;99.90;;;;;;5032684;28;20437;-69
2023/08/24 02:52:32;;;;;;;12.73;7.10;;;20.10;99.90;;;;;;5032229;28;20387;-69
2023/08/24 02:54:58;;;;;;;11.60;7.25;;;20.10;1.00;;;;;;5031369;28;21133;-69
2023/08/24 02:57:24;;;;;;;13.32;7.40;;;20.00;1.00;;;;;;5032001;28;20731;-69
2023/08/24 02:59:50;;;;;;;11.65;6.70;;;20.00;1.00;;;;;;5028253;28;20430;-69
2023/08/24 03:02:15;;;;;;;13.98;8.30;;;20.00;1.00;;;;;;5029284;28;20470;-70
2023/08/24 03:04:41;;;;;;;14.10;8.47;;;20.00;1.00;;;;;;5020906;28;20389;-69
2023/08/24 03:07:10;;;;;;;13.07;8.27;;;20.00;1.00;;;;;;5012127;28;20897;-69
2023/08/24 03:09:35;;;;;;;13.32;8.20;;;20.00;1.00;;;;;;5012284;28;20468;-69
2023/08/24 03:12:01;;;;;;;13.77;8.00;;;20.00;1.00;;;;;;5012351;28;20484;-69
2023/08/24 03:14:26;;;;;;;13.20;7.63;;;20.10;1.00;;;;;;5027354;28;20549;-69
2023/08/24 03:16:52;;;;;;;12.60;7.37;;;20.10;1.00;;;;;;5031937;28;20834;-69
2023/08/24 03:19:18;;;;;;;14.87;8.03;;;20.10;1.00;;;;;;5031892;28;20386;-69
2023/08/24 03:21:44;;;;;;;15.10;8.43;;;20.10;1.00;;;;;;5031597;28;20456;-69
2023/08/24 03:24:09;;;;;;;12.55;7.47;;;20.10;1.00;;;;;;5031672;28;20427;-69
2023/08/24 03:26:35;;;;;;;12.65;8.00;;;20.10;1.00;;;;;;5031613;28;20414;-69
2023/08/24 03:29:00;;;;;;;14.32;7.72;;;20.10;1.00;;;;;;5031471;28;20894;-69
2023/08/24 03:31:26;;;;;;;15.00;7.50;;;20.00;1.00;;;;;;5029174;28;20415;-69
2023/08/24 03:33:52;;;;;;;12.90;7.40;;;20.10;1.00;;;;;;5031644;28;20450;-69
2023/08/24 03:36:18;;;;;;;14.97;8.70;;;20.10;1.00;;;;;;5031181;28;20402;-69
2023/08/24 03:38:45;;;;;;;15.52;7.72;;;20.10;1.00;;;;;;5031167;28;20441;-69
2023/08/24 03:41:10;;;;;;;17.02;8.40;;;20.10;99.90;;;;;;5023989;28;20510;-69
2023/08/24 03:43:37;;;;;;;14.55;7.68;;;20.00;1.00;;;;;;5030736;28;20928;-70
2023/08/24 03:46:06;;;;;;;12.82;7.90;;;19.90;1.00;;;;;;5030972;28;20386;-69
2023/08/24 03:48:32;;;;;;;16.75;9.43;;;19.90;1.00;;;;;;5030946;28;20463;-69
2023/08/24 03:50:58;;;;;;;14.55;7.93;;;19.90;1.00;;;;;;5030687;28;20478;-69
2023/08/24 03:53:25;;;;;;;14.10;8.45;;;20.00;1.00;;;;;;5030814;28;20415;-69
2023/08/24 03:55:51;;;;;;;17.63;8.93;;;20.00;1.00;;;;;;5031256;28;20773;-69
2023/08/24 03:58:17;;;;;;;13.68;8.32;;;20.00;1.00;;;;;;5029475;28;20403;-69
2023/08/24 04:00:44;;;;;;;14.50;8.00;;;20.10;1.00;;;;;;5030615;28;20820;-69
2023/08/24 04:03:09;;;;;;;14.23;8.45;;;20.20;1.00;;;;;;5030744;28;20478;-69
2023/08/24 04:05:35;;;;;;;15.02;8.27;;;20.20;99.90;;;;;;5029218;28;20478;-69
2023/08/24 04:08:00;;;;;;;15.48;8.40;;;20.30;99.90;;;;;;5030781;28;20438;-69
2023/08/24 04:10:27;;;;;;;14.10;8.13;;;20.30;99.90;;;;;;5029795;28;20470;-69
2023/08/24 04:12:53;;;;;;;14.13;8.60;;;20.40;99.90;;;;;;5031060;28;20406;-69
2023/08/24 04:15:18;;;;;;;15.60;8.38;;;20.50;99.90;;;;;;5030105;28;20442;-69
2023/08/24 04:17:44;;;;;;;12.90;7.27;;;20.50;99.90;;;;;;5030355;28;20399;-69
2023/08/24 04:20:11;;;;;;;13.47;8.40;;;20.50;99.90;;;;;;5030126;28;20375;-69
2023/08/24 04:22:36;;;;;;;14.02;8.93;;;20.70;99.90;;;;;;5030013;28;20395;-69
2023/08/24 04:25:02;;;;;;;14.30;7.90;;;20.70;99.90;;;;;;5030106;28;20398;-69
2023/08/24 04:27:28;;;;;;;14.47;9.20;;;20.70;99.90;;;;;;5029461;28;20931;-69
2023/08/24 04:29:53;;;;;;;14.03;8.13;;;20.70;99.90;;;;;;5030521;28;20909;-69
2023/08/24 04:32:19;;;;;;;18.53;8.00;;;20.70;99.90;;;;;;5030877;28;20391;-69
2023/08/24 04:34:44;;;;;;;14.73;8.82;;;20.70;99.90;;;;;;5028979;28;20427;-69
2023/08/24 04:37:10;;;;;;;15.27;8.27;;;20.70;99.90;;;;;;5030283;28;20884;-69
2023/08/24 04:39:35;;;;;;;12.77;7.43;;;20.80;99.90;;;;;;5029976;28;20395;-69
2023/08/24 04:42:02;;;;;;;13.73;8.57;;;20.80;99.90;;;;;;5030067;28;20383;-69
2023/08/24 04:44:28;;;;;;;14.10;8.43;;;20.90;99.90;;;;;;5030137;28;20453;-70
2023/08/24 04:46:53;;;;;;;17.40;8.93;;;20.90;99.90;;;;;;5030701;28;20403;-70
2023/08/24 04:49:19;;;;;;;16.53;7.97;;;20.90;99.90;;;;;;5029142;28;20407;-70
2023/08/24 04:51:44;;;;;;;15.43;7.93;;;20.90;99.90;;;;;;5029648;28;20403;-70
2023/08/24 04:54:10;;;;;;;14.23;8.33;;;20.80;99.90;;;;;;5029096;28;20454;-70
2023/08/24 04:56:35;;;;;;;16.57;8.30;;;20.90;99.90;;;;;;5028946;28;21054;-70
2023/08/24 04:59:02;;;;;;;13.55;8.13;;;20.90;99.90;;;;;;5029426;28;20825;-71
2023/08/24 05:01:31;;;;;;;13.45;7.85;;;20.80;99.90;;;;;;5026563;28;20418;-70
2023/08/24 05:03:57;;;;;;;15.53;8.47;;;20.80;99.90;;;;;;5027035;28;20749;-70
2023/08/24 05:06:23;;;;;;;13.18;7.90;;;20.70;99.90;;;;;;5029989;28;20466;-70
2023/08/24 05:08:48;;;;;;;14.37;7.73;;;20.70;99.90;;;;;;5029264;28;20939;-70
2023/08/24 05:11:19;;;;;;;14.43;7.50;;;20.70;99.90;;;;;;5028958;28;20393;-70
2023/08/24 05:13:45;;;;;;;13.45;7.60;;;20.90;99.90;;;;;;5027910;28;20430;-69
2023/08/24 05:16:11;;;;;;;13.90;7.13;;;21.00;99.90;;;;;;5029554;28;20407;-70
2023/08/24 05:18:37;;;;;;;13.30;7.18;;;21.10;95.30;;;;;;5029659;28;20430;-70
2023/08/24 05:21:04;;;;;;;11.73;6.87;;;21.10;1.00;;;;;;5029286;28;20419;-70
2023/08/24 05:23:30;;;;;;;14.98;7.65;;;21.30;1.00;;;;;;5028974;28;20435;-71
2023/08/24 05:26:00;;;;;;;14.00;7.38;;;21.30;1.00;;;;;;5028719;28;20403;-71
2023/08/24 05:28:30;;;;;;;13.83;6.90;;;21.30;1.00;;;;;;5028789;28;20398;-70
2023/08/24 05:30:56;;;;;;;12.45;7.25;;;21.50;1.00;;;;;;5025247;28;20385;-70
2023/08/24 05:33:23;;;;;;;14.77;6.90;;;21.70;1.00;;;;;;5029201;28;20406;-70
2023/08/24 05:35:50;;;;;;;12.48;6.65;;;21.80;99.90;;;;;;5028087;28;20442;-70
2023/08/24 05:38:15;;;;;;;12.80;7.32;;;22.00;99.90;;;;;;5025525;28;20415;-71
2023/08/24 05:40:48;;;;;;;14.50;7.50;;;22.40;1.00;;;;;;5027214;28;20896;-68
2023/08/24 05:43:14;;;;;;;14.77;7.97;;;22.60;99.90;;;;;;5026110;28;20490;-69
2023/08/24 05:45:40;;;;;;;13.93;7.50;;;22.70;1.00;;;;;;5025672;28;20511;-69
2023/08/24 05:48:06;;;;;;;16.67;8.43;;;22.90;84.20;;;;;;5028564;28;20927;-68
2023/08/24 05:50:32;;;;;;;13.70;7.90;;;23.00;99.90;;;;;;5028655;28;20513;-68
2023/08/24 05:52:57;;;;;;;19.20;8.33;;;23.00;99.90;;;;;;5025235;28;20399;-68
2023/08/24 05:55:23;;;;;;;13.40;7.30;;;23.10;99.90;;;;;;5024964;28;20446;-69
2023/08/24 05:57:48;;;;;;;12.83;8.00;;;23.00;1.10;;;;;;5028676;28;20402;-68
2023/08/24 06:00:14;;;;;;;12.80;6.97;;;23.10;41.50;;;;;;5027790;28;20438;-69
2023/08/24 06:02:40;;;;;;;13.40;7.45;;;23.10;30.90;;;;;;5024978;28;20395;-72
2023/08/24 06:05:07;;;;;;;15.27;7.72;;;23.20;2.30;;;;;;5023649;28;20403;-73
2023/08/24 06:07:33;;;;;;;12.65;7.25;;;23.10;1.10;;;;;;5021319;28;20428;-73
2023/08/24 06:09:59;;;;;;;17.13;8.00;;;23.20;42.80;;;;;;5016858;28;20555;-73
2023/08/24 06:12:24;;;;;;;18.60;8.33;;;23.40;1.00;;;;;;5026834;28;20910;-73
2023/08/24 06:14:50;;;;;;;17.87;7.90;;;23.60;99.90;;;;;;5029202;28;20447;-73
2023/08/24 06:17:15;;;;;;;15.70;8.10;;;23.80;9.70;;;;;;5015166;28;20783;-74
2023/08/24 06:19:41;;;;;;;12.80;7.90;;;23.90;1.00;;;;;;5010526;28;20397;-75
2023/08/24 06:22:07;;;;;;;12.60;6.77;;;24.30;99.90;;;;;;5033199;28;20391;-75
2023/08/24 06:24:33;;;;;;;12.03;7.33;;;24.70;1.00;;;;;;5033060;28;20960;-74
2023/08/24 06:26:58;;;;;;;17.17;7.72;;;25.00;99.90;;;;;;5030211;28;20404;-74
2023/08/24 06:29:24;;;;;;;14.07;7.63;;;25.20;99.90;;;;;;5025426;28;20397;-75
2023/08/24 06:31:49;;;;;;;16.40;7.00;;;25.70;99.90;;;;;;5031512;28;20441;-74
2023/08/24 06:34:15;;;;;;;13.40;7.33;;;25.80;19.20;;;;;;5030842;28;20492;-73
2023/08/24 06:36:40;;;;;;;12.83;7.20;;;26.00;1.00;;;;;;5031686;28;20939;-74
2023/08/24 06:39:06;;;;;;;13.10;7.20;;;25.80;5.30;;;;;;5030289;28;20475;-74
2023/08/24 06:41:35;;;;;;;12.57;6.83;;;25.30;20.60;;;;;;5027946;28;20920;-74
2023/08/24 06:44:01;;;;;;;15.32;7.70;;;24.60;99.90;;;;;;5025256;28;20406;-74
2023/08/24 06:46:27;;;;;;;10.85;6.97;;;24.10;99.90;;;;;;5021135;28;20422;-74
2023/08/24 06:48:52;;;;;;;14.33;7.43;;;23.90;1.00;;;;;;5029399;28;20649;-74
2023/08/24 06:51:18;;;;;;;13.17;6.90;;;23.60;1.00;;;;;;5025652;28;20410;-73
2023/08/24 06:53:44;;;;;;;14.00;7.77;;;23.70;1.00;;;;;;5027386;28;20850;-74
2023/08/24 06:56:10;;;;;;;18.10;7.70;;;23.80;1.00;;;;;;5024947;28;20431;-74
2023/08/24 06:58:35;;;;;;;14.15;7.88;;;23.90;99.90;;;;;;5020252;28;20441;-74
2023/08/24 07:01:05;;;;;;;12.37;7.47;;;24.00;99.90;;;;;;5020025;28;20892;-74
2023/08/24 07:03:32;;;;;;;14.82;7.75;;;24.00;99.90;;;;;;5024606;28;20406;-74
2023/08/24 07:05:58;;;;;;;15.00;7.53;;;24.10;14.40;;;;;;5024718;28;20424;-75
2023/08/24 07:08:23;;;;;;;16.17;7.33;;;24.40;1.00;;;;;;5017149;28;20603;-69
2023/08/24 07:10:49;;;;;;;12.77;7.13;;;24.50;1.00;;;;;;5029422;28;20403;-69
2023/08/24 07:13:14;;;;;;;12.80;7.30;;;24.60;1.00;;;;;;5026047;28;20430;-68
2023/08/24 07:15:40;;;;;;;12.53;7.50;;;25.00;1.00;;;;;;5018678;28;20429;-69
2023/08/24 07:18:07;;;;;;;15.87;7.00;;;26.00;99.90;;;;;;5031064;28;20394;-69
2023/08/24 07:20:33;;;;;;;12.43;6.33;;;26.60;5.20;;;;;;5027725;28;20515;-69
2023/08/24 07:22:58;;;;;;;11.23;6.32;;;26.40;1.00;;;;;;5027138;28;20921;-69
2023/08/24 07:25:24;;;;;;;11.20;6.47;;;26.00;1.00;;;;;;5031102;28;20391;-69
2023/08/24 07:27:49;;;;;;;13.07;6.80;;;25.80;1.00;;;;;;5031302;28;20395;-69
2023/08/24 07:30:15;;;;;;;11.45;6.65;;;25.80;1.00;;;;;;5031746;28;20419;-69
2023/08/24 07:32:41;;;;;;;12.10;6.40;;;25.90;1.00;;;;;;5031297;28;20442;-69
2023/08/24 07:35:07;;;;;;;12.85;6.28;;;26.40;1.00;;;;;;5031625;28;20451;-69
2023/08/24 07:37:33;;;;;;;10.40;5.83;;;26.70;1.00;;;;;;5030812;28;20450;-69
2023/08/24 07:39:58;;;;;;;10.93;5.77;;;26.60;1.00;;;;;;5031377;28;20422;-69
2023/08/24 07:42:24;;;;;;;11.67;6.40;;;26.60;1.00;;;;;;5031399;28;20858;-69
2023/08/24 07:44:50;;;;;;;12.38;6.80;;;28.50;1.00;;;;;;5032040;28;20477;-69
2023/08/24 07:47:16;;;;;;;10.30;5.60;;;29.10;1.00;;;;;;5031341;28;20395;-69
2023/08/24 07:49:44;;;;;;;11.73;5.13;;;30.70;99.90;;;;;;5031338;28;20407;-70
2023/08/24 07:52:11;;;;;;;10.02;5.25;;;31.70;99.90;;;;;;5031067;28;20395;-71
2023/08/24 07:54:36;;;;;;;11.10;5.60;;;33.30;99.90;;;;;;5031150;28;20415;-71
2023/08/24 07:57:02;;;;;;;9.17;4.80;;;34.70;99.90;;;;;;5031131;28;20390;-71
2023/08/24 07:59:27;;;;;;;9.60;4.70;;;35.10;99.90;;;;;;5030645;28;20410;-70
2023/08/24 08:01:53;;;;;;;9.63;4.70;;;35.80;99.90;;;;;;5030927;28;20735;-70
2023/08/24 08:04:18;;;;;;;9.10;4.73;;;35.80;1.00;;;;;;5031221;28;20395;-70
2023/08/24 08:06:44;;;;;;;9.03;4.93;;;35.80;1.00;;;;;;5030518;28;20392;-70
2023/08/24 08:09:09;;;;;;;10.90;4.40;;;35.70;1.00;;;;;;5030715;28;20850;-70
2023/08/24 08:11:35;;;;;;;8.98;4.88;;;35.00;8.20;;;;;;5030694;28;20889;-70
2023/08/24 08:14:00;;;;;;;8.37;4.33;;;35.70;1.00;;;;;;5030499;28;20465;-70
2023/08/24 08:16:26;;;;;;;8.65;4.10;;;35.80;22.10;;;;;;5019673;28;20500;-71
2023/08/24 08:18:51;;;;;;;9.87;4.50;;;35.90;1.00;;;;;;5022790;28;20422;-70
2023/08/24 08:21:18;;;;;;;8.73;4.50;;;35.70;1.00;;;;;;5029116;28;20383;-70
2023/08/24 08:23:45;;;;;;;9.13;4.22;;;36.30;1.00;;;;;;5010573;28;21478;-71
2023/08/24 08:26:11;;;;;;;7.95;4.50;;;36.10;1.00;;;;;;5017324;28;20886;-70
2023/08/24 08:28:37;;;;;;;10.50;4.90;;;37.20;56.00;;;;;;5030678;28;20387;-70
2023/08/24 08:31:03;;;;;;;9.07;4.97;;;36.90;66.70;;;;;;5030577;28;20780;-69
2023/08/24 08:33:29;;;;;;;14.77;4.60;;;36.70;87.40;;;;;;5030182;28;20453;-71
2023/08/24 08:35:55;;;;;;;9.57;5.00;;;;;;;;;;5030014;28;20419;-71
2023/08/24 08:38:25;;;;;;;9.45;4.88;;;;;;;;;;5030997;28;20375;-70
2023/08/24 08:40:51;;;;;;;9.80;5.10;;;;;;;;;;5029225;28;20486;-70
2023/08/24 08:43:17;;;;;;;9.98;4.93;;;;;;;;;;5029884;28;20453;-69
2023/08/24 08:45:43;;;;;;;10.02;4.90;;;;;;;;;;5030484;28;20414;-69
2023/08/24 08:48:10;;;;;;;9.43;4.22;;;;;;;;;;5029358;28;20396;-69
2023/08/24 08:50:36;;;;;;;8.32;4.80;;;;;;;;;;5029744;28;20397;-69
2023/08/24 08:53:02;;;;;;;8.95;4.15;;;;;;;;;;5029754;28;20478;-69
2023/08/24 08:55:28;;;;;;;8.77;3.95;;;;;;;;;;5028173;28;20506;-69
2023/08/24 08:57:58;;;;;;;8.93;4.32;;;;;;;;;;5029695;28;20391;-71
2023/08/24 09:00:23;;;;;;;9.30;4.30;;;37.60;99.90;;;;;;5030281;28;20419;-72
2023/08/24 09:02:52;;;;;;;9.75;4.45;;;37.80;99.90;;;;;;5030293;28;20402;-72
2023/08/24 09:05:19;;;;;;;7.35;4.05;;;38.40;99.90;;;;;;5029912;28;20448;-71
2023/08/24 09:07:46;;;;;;;8.80;4.57;;;38.10;99.90;;;;;;5029667;28;20409;-71
2023/08/24 09:10:12;;;;;;;7.87;3.90;;;37.90;99.90;;;;;;5029742;28;20838;-72
2023/08/24 09:12:38;;;;;;;8.43;4.10;;;38.30;99.90;;;;;;5029586;28;20398;-71
2023/08/24 09:15:07;;;;;;;9.70;4.40;;;38.60;99.90;;;;;;5011113;28;20490;-71
2023/08/24 09:17:34;;;;;;;8.82;4.13;;;38.90;99.90;;;;;;5009498;28;20480;-72
2023/08/24 09:20:06;;;;;;;9.20;4.43;;;39.20;99.90;;;;;;5008482;28;20463;-72
2023/08/24 09:22:36;;;;;;;7.97;4.00;;;39.10;99.90;;;;;;5009816;28;20425;-72
2023/08/24 09:25:03;;;;;;;9.10;4.37;;;39.20;99.90;;;;;;5009508;28;20415;-72
2023/08/24 09:27:29;;;;;;;7.97;3.92;;;39.40;99.90;;;;;;5019081;28;20403;-71
2023/08/24 09:29:55;;;;;;;11.50;4.10;;;39.20;99.90;;;;;;5029453;28;20433;-71
2023/08/24 09:32:26;;;;;;;8.00;4.20;;;39.00;99.90;;;;;;5029480;28;20387;-71
2023/08/24 09:34:52;;;;;;;8.13;4.27;;;38.80;99.90;;;;;;5029726;28;20425;-71
2023/08/24 09:37:18;;;;;;;9.63;4.40;;;39.30;99.90;;;;;;5029408;28;20382;-72
2023/08/24 09:39:45;;;;;;;9.15;4.40;;;39.70;99.90;;;;;;5029629;28;20403;-71
2023/08/24 09:42:11;;;;;;;9.25;4.50;;;40.00;99.90;;;;;;5029771;28;20397;-71
2023/08/24 09:44:36;;;;;;;10.20;4.10;;;40.20;99.90;;;;;;5029099;28;20395;-71
2023/08/24 09:47:02;;;;;;;9.80;4.25;;;39.90;99.90;;;;;;5028884;28;20491;-72
2023/08/24 09:49:28;;;;;;;8.57;4.18;;;40.50;99.90;;;;;;5029228;28;20375;-70
2023/08/24 09:51:57;;;;;;;9.10;4.25;;;41.00;99.90;;;;;;5028780;28;20379;-70
2023/08/24 09:54:27;;;;;;;16.20;5.10;;;41.70;99.90;;;;;;5028975;28;20415;-70
2023/08/24 09:56:56;;;;;;;9.75;5.47;;;42.20;99.90;;;;;;5029718;28;20398;-70
2023/08/24 09:59:24;;;;;;;8.75;4.10;;;42.70;99.90;;;;;;5030738;28;20477;-69
2023/08/24 10:01:51;;;;;;;7.78;4.53;;;42.60;99.90;;;;;;5031247;28;20402;-69
2023/08/24 10:04:27;;;;;;;8.70;4.40;;;42.10;99.90;;;;;;5029849;28;20494;-71
2023/08/24 10:07:05;;;;;;;10.52;4.50;;;40.80;99.90;;;;;;5029729;28;20379;-71
2023/08/24 10:09:36;;;;;;;8.75;4.70;;;40.60;99.90;;;;;;5029134;28;20434;-72
2023/08/24 10:12:05;;;;;;;10.97;5.40;;;40.70;99.90;;;;;;5028725;28;20452;-71
2023/08/24 10:14:47;;;;;;;10.82;4.60;;;40.70;99.90;;;;;;5029135;28;20418;-70
2023/08/24 10:17:14;;;;;;;8.30;4.40;;;40.80;99.90;;;;;;5031036;28;20866;-71
2023/08/24 10:19:41;;;;;;;8.80;4.90;;;40.80;99.90;;;;;;5035739;28;20464;-71
2023/08/24 10:22:07;;;;;;;9.32;5.32;;;40.20;99.90;;;;;;5034094;28;20391;-72
2023/08/24 10:24:35;;;;;;;9.00;4.85;;;40.00;99.90;;;;;;5034097;28;20482;-71
2023/08/24 10:27:03;;;;;;;9.40;4.70;;;40.10;99.90;;;;;;5028951;28;20464;-72
2023/08/24 10:29:29;;;;;;;9.00;4.43;;;40.20;99.90;;;;;;5013826;28;20392;-72
2023/08/24 10:31:55;;;;;;;11.18;5.30;;;40.20;99.90;;;;;;5010206;28;20396;-72
2023/08/24 10:34:21;;;;;;;9.27;5.32;;;39.90;99.90;;;;;;5009791;28;20508;-71
2023/08/24 10:36:51;;;;;;;9.90;5.60;;;39.70;99.90;;;;;;5009255;28;20480;-71
2023/08/24 10:39:17;;;;;;;10.48;5.45;;;39.70;99.90;;;;;;5008979;28;20470;-71
2023/08/24 10:41:49;;;;;;;11.60;5.20;;;39.10;99.90;;;;;;5008932;28;20530;-71
2023/08/24 10:44:35;;;;;;;8.73;4.90;;;39.00;99.90;;;;;;5008627;28;20396;-71
2023/08/24 10:47:15;;;;;;;9.27;5.60;;;38.80;99.90;;;;;;5009101;28;20471;-71
2023/08/24 10:49:42;;;;;;;9.85;5.10;;;38.10;99.90;;;;;;5008731;28;20471;-69
2023/08/24 10:52:24;;;;;;;9.95;4.80;;;37.20;99.90;;;;;;5008923;28;20381;-69
2023/08/24 10:54:51;;;;;;;12.90;5.78;;;36.70;99.90;;;;;;5009182;28;20933;-69
2023/08/24 10:57:22;;;;;;;9.52;5.28;;;36.80;99.90;;;;;;5008681;28;20476;-69
2023/08/24 11:00:09;;;;;;;10.33;5.20;;;36.60;99.90;;;;;;5008616;28;20417;-69
2023/08/24 11:02:48;;;;;;;10.23;5.00;;;36.70;99.90;;;;;;5008672;28;20405;-69
2023/08/24 11:05:27;;;;;;;11.50;4.90;;;36.80;99.90;;;;;;5008294;28;20404;-69
2023/08/24 11:07:58;;;;;;;9.98;5.70;;;36.80;99.90;;;;;;5012898;28;20468;-69
2023/08/24 11:10:26;;;;;;;11.23;5.00;;;36.50;99.90;;;;;;5012576;28;20393;-69
2023/08/24 11:13:04;;;;;;;10.65;5.45;;;36.40;99.90;;;;;;5013179;28;20393;-69
2023/08/24 11:15:36;;;;;;;10.38;4.97;;;36.40;99.90;;;;;;5031518;28;20415;-69
2023/08/24 11:18:26;;;;;;;11.43;5.80;;;36.50;99.90;;;;;;5031996;28;20387;-69
2023/08/24 11:21:04;;;;;;;9.95;5.20;;;36.50;99.90;;;;;;5032742;28;20478;-69
2023/08/24 11:23:30;;;;;;;11.35;5.10;;;36.60;99.90;;;;;;5028226;28;20403;-69
2023/08/24 11:25:58;;;;;;;8.60;4.80;;;36.40;99.90;;;;;;5031581;28;20823;-69
2023/08/24 11:28:26;;;;;;;9.65;5.22;;;36.00;99.90;;;;;;5031583;28;20401;-71
2023/08/24 11:30:53;;;;;;;9.80;5.05;;;35.70;99.90;;;;;;5032170;28;20396;-71
2023/08/24 11:33:30;;;;;;;11.00;4.80;;;35.80;99.90;;;;;;5031945;28;20379;-71
2023/08/24 11:35:55;;;;;;;10.35;5.10;;;36.20;99.90;;;;;;5031214;28;20415;-69
2023/08/24 11:38:21;;;;;;;11.60;4.93;;;36.30;99.90;;;;;;5031879;28;20394;-70
2023/08/24 11:40:47;;;;;;;9.50;4.57;;;36.40;99.90;;;;;;5031387;28;20502;-70
2023/08/24 11:43:12;;;;;;;10.55;4.95;;;36.40;99.90;;;;;;5031072;28;20394;-69
2023/08/24 11:45:40;;;;;;;12.60;5.57;;;36.50;99.90;;;;;;5031195;28;20391;-69
2023/08/24 11:48:06;;;;;;;9.50;5.40;;;36.70;99.90;;;;;;5031459;28;20391;-69
2023/08/24 11:50:36;;;;;;;10.10;5.38;;;36.20;99.90;;;;;;5031090;28;20394;-69
2023/08/24 11:53:02;;;;;;;9.88;5.50;;;35.80;99.90;;;;;;5031088;28;20400;-69
2023/08/24 11:55:28;;;;;;;9.68;5.10;;;35.90;99.90;;;;;;5031299;28;20411;-69
2023/08/24 11:57:53;;;;;;;13.87;6.47;;;35.90;99.90;;;;;;5031313;28;20413;-69
2023/08/24 12:00:21;;;;;;;11.73;5.80;;;35.90;99.90;;;;;;5031420;28;20457;-69
2023/08/24 12:02:47;;;;;;;11.10;4.88;;;36.00;99.90;;;;;;5030649;28;20893;-69
2023/08/24 12:05:24;;;;;;;9.60;5.40;;;36.20;99.90;;;;;;5030617;28;20505;-69
2023/08/24 12:07:52;;;;;;;13.38;5.97;;;36.40;99.90;;;;;;5031276;28;20399;-70
2023/08/24 12:10:17;;;;;;;9.63;5.13;;;36.50;99.90;;;;;;5030884;28;20406;-69
2023/08/24 12:12:43;;;;;;;11.48;5.88;;;36.40;99.90;;;;;;5030555;28;20375;-69
2023/08/24 12:15:19;;;;;;;9.65;5.55;;;36.50;99.90;;;;;;5030669;28;20517;-69
2023/08/24 12:17:46;;;;;;;10.60;5.68;;;36.40;99.90;;;;;;5029889;28;20418;-69
2023/08/24 12:20:21;;;;;;;9.77;5.10;;;36.40;99.90;;;;;;5030356;28;20482;-69
2023/08/24 12:22:54;;;;;;;11.27;5.20;;;36.40;99.90;;;;;;5029270;28;20453;-69
2023/08/24 12:25:23;;;;;;;10.70;5.40;;;36.40;99.90;;;;;;5031224;28;20383;-69
2023/08/24 12:28:09;;;;;;;12.90;6.10;;;36.40;99.90;;;;;;5030977;28;20387;-69
2023/08/24 12:30:52;;;;;;;13.37;5.83;;;36.20;99.90;;;;;;5030229;28;20931;-69
2023/08/24 12:33:28;;;;;;;9.47;5.30;;;36.30;99.90;;;;;;5030732;28;20391;-69
2023/08/24 12:35:55;;;;;;;11.05;5.13;;;36.40;99.90;;;;;;5030205;28;20426;-69
2023/08/24 12:38:22;;;;;;;10.20;6.20;;;36.50;99.90;;;;;;5030714;28;20387;-69
2023/08/24 12:40:48;;;;;;;10.98;5.75;;;36.50;99.90;;;;;;5029827;28;20398;-69
2023/08/24 12:43:14;;;;;;;9.87;5.20;;;36.50;99.90;;;;;;5030075;28;20468;-69
2023/08/24 12:45:40;;;;;;;11.00;5.50;;;36.20;99.90;;;;;;5029649;28;20391;-70